createdAt,value
2017-03-25T00:00:31.162Z,35.70
2017-03-25T00:01:28.827Z,38.47
2017-03-25T00:02:27.443Z,40.83
2017-03-25T00:03:25.074Z,35.17
2017-03-25T00:04:23.258Z,36.78
2017-03-25T00:05:21.030Z,40.43
2017-03-25T00:06:19.134Z,36.05
2017-03-25T00:07:16.846Z,37.30
2017-03-25T00:08:14.678Z,39.15
2017-03-25T00:09:12.631Z,42.25
2017-03-25T00:10:10.397Z,38.33
2017-03-25T00:11:08.323Z,35.43
2017-03-25T00:12:06.934Z,40.67
2017-03-25T00:13:04.764Z,36.33
2017-03-25T00:14:02.406Z,42.27
2017-03-25T00:15:00.381Z,38.07
2017-03-25T00:15:58.511Z,34.47
2017-03-25T00:16:57.323Z,33.85
2017-03-25T00:17:55.743Z,36.20
2017-03-25T00:18:53.587Z,36.05
2017-03-25T00:19:51.572Z,36.45
2017-03-25T00:20:49.275Z,35.28
2017-03-25T00:21:47.490Z,30.45
2017-03-25T00:22:45.184Z,33.70
2017-03-25T00:23:43.846Z,34.37
2017-03-25T00:24:42.583Z,33.52
2017-03-25T00:25:41.184Z,32.18
2017-03-25T00:26:38.813Z,37.13
2017-03-25T00:27:36.548Z,35.02
2017-03-25T00:28:34.209Z,38.25
2017-03-25T00:29:31.848Z,40.33
2017-03-25T00:30:29.658Z,32.73
2017-03-25T00:31:27.586Z,35.82
2017-03-25T00:32:25.691Z,37.25
2017-03-25T00:33:23.801Z,36.95
2017-03-25T00:34:21.450Z,31.53
2017-03-25T00:35:19.431Z,33.50
2017-03-25T00:36:17.117Z,32.98
2017-03-25T00:37:14.733Z,30.75
2017-03-25T00:38:12.407Z,33.73
2017-03-25T00:39:10.379Z,32.47
2017-03-25T00:40:08.702Z,30.43
2017-03-25T00:41:06.407Z,29.33
2017-03-25T00:42:04.079Z,34.42
2017-03-25T00:43:02.767Z,32.12
2017-03-25T00:44:00.479Z,28.52
2017-03-25T00:44:58.271Z,31.85
2017-03-25T00:45:56.459Z,30.63
2017-03-25T00:46:54.175Z,32.07
2017-03-25T00:47:51.989Z,31.33
2017-03-25T00:48:49.666Z,31.38
2017-03-25T00:49:47.426Z,30.78
2017-03-25T00:50:45.242Z,30.13
2017-03-25T00:51:46.001Z,32.25
2017-03-25T00:52:43.638Z,32.28
2017-03-25T00:53:41.484Z,29.08
2017-03-25T00:54:40.387Z,33.25
2017-03-25T00:55:38.199Z,29.28
2017-03-25T00:56:36.091Z,35.28
2017-03-25T00:57:33.955Z,30.52
2017-03-25T00:58:31.562Z,28.00
2017-03-25T00:59:29.152Z,32.50
2017-03-25T01:00:27.270Z,29.57
2017-03-25T01:01:25.266Z,26.18
2017-03-25T01:02:23.239Z,31.08
2017-03-25T01:03:21.204Z,28.58
2017-03-25T01:04:18.873Z,29.42
2017-03-25T01:05:16.743Z,30.38
2017-03-25T01:06:14.455Z,29.62
2017-03-25T01:07:12.319Z,30.00
2017-03-25T01:08:10.103Z,28.40
2017-03-25T01:09:07.918Z,30.33
2017-03-25T01:10:06.168Z,29.92
2017-03-25T01:11:04.019Z,29.75
2017-03-25T01:12:01.695Z,26.85
2017-03-25T01:12:59.286Z,28.92
2017-03-25T01:13:56.998Z,30.02
2017-03-25T01:14:54.846Z,30.00
2017-03-25T01:15:52.976Z,31.73
2017-03-25T01:16:50.706Z,31.05
2017-03-25T01:17:49.514Z,32.77
2017-03-25T01:18:48.110Z,32.03
2017-03-25T01:19:45.758Z,31.30
2017-03-25T01:20:43.923Z,32.28
2017-03-25T01:21:41.590Z,29.80
2017-03-25T01:22:39.246Z,31.37
2017-03-25T01:23:37.046Z,27.13
2017-03-25T01:24:34.735Z,29.65
2017-03-25T01:25:32.394Z,29.82
2017-03-25T01:26:30.519Z,32.57
2017-03-25T01:27:28.219Z,28.88
2017-03-25T01:28:26.275Z,29.37
2017-03-25T01:29:23.990Z,28.62
2017-03-25T01:30:22.816Z,30.72
2017-03-25T01:31:20.475Z,32.67
2017-03-25T01:32:18.665Z,28.27
2017-03-25T01:33:16.882Z,30.35
2017-03-25T01:34:14.534Z,27.53
2017-03-25T01:35:12.242Z,31.03
2017-03-25T01:36:10.061Z,28.92
2017-03-25T01:37:08.529Z,29.27
2017-03-25T01:38:07.334Z,28.60
2017-03-25T01:39:05.194Z,27.45
2017-03-25T01:40:03.002Z,30.13
2017-03-25T01:41:00.732Z,31.20
2017-03-25T01:41:58.805Z,33.22
2017-03-25T01:42:57.029Z,30.55
2017-03-25T01:43:55.194Z,27.30
2017-03-25T01:44:53.510Z,30.68
2017-03-25T01:45:51.379Z,29.65
2017-03-25T01:46:49.058Z,30.03
2017-03-25T01:47:48.824Z,30.03
2017-03-25T01:48:46.569Z,30.40
2017-03-25T01:49:45.207Z,32.25
2017-03-25T01:50:43.570Z,29.28
2017-03-25T01:51:41.178Z,29.55
2017-03-25T01:52:39.094Z,33.05
2017-03-25T01:53:36.781Z,29.67
2017-03-25T01:54:34.423Z,30.85
2017-03-25T01:55:32.315Z,30.42
2017-03-25T01:56:29.965Z,26.97
2017-03-25T01:57:27.627Z,30.95
2017-03-25T01:58:25.461Z,33.35
2017-03-25T01:59:24.439Z,33.00
2017-03-25T02:00:22.763Z,35.12
2017-03-25T02:01:21.570Z,30.93
2017-03-25T02:02:19.902Z,34.58
2017-03-25T02:03:17.670Z,29.92
2017-03-25T02:04:16.022Z,34.63
2017-03-25T02:05:13.775Z,32.20
2017-03-25T02:06:12.562Z,33.97
2017-03-25T02:07:10.271Z,29.93
2017-03-25T02:08:08.267Z,29.70
2017-03-25T02:09:06.759Z,31.97
2017-03-25T02:10:04.659Z,32.18
2017-03-25T02:11:04.571Z,32.68
2017-03-25T02:12:02.411Z,32.75
2017-03-25T02:13:00.063Z,37.33
2017-03-25T02:13:57.884Z,32.63
2017-03-25T02:14:55.492Z,32.80
2017-03-25T02:15:53.173Z,32.85
2017-03-25T02:16:51.053Z,31.68
2017-03-25T02:17:48.700Z,32.78
2017-03-25T02:18:46.391Z,36.08
2017-03-25T02:19:44.586Z,33.13
2017-03-25T02:20:43.547Z,32.27
2017-03-25T02:21:41.179Z,35.50
2017-03-25T02:22:38.835Z,31.67
2017-03-25T02:23:36.588Z,35.23
2017-03-25T02:24:34.225Z,28.28
2017-03-25T02:25:32.477Z,32.43
2017-03-25T02:26:30.295Z,33.35
2017-03-25T02:27:27.919Z,30.37
2017-03-25T02:28:26.682Z,34.58
2017-03-25T02:29:24.370Z,30.72
2017-03-25T02:30:22.118Z,35.95
2017-03-25T02:31:19.914Z,37.15
2017-03-25T02:32:17.583Z,32.72
2017-03-25T02:33:15.442Z,32.92
2017-03-25T02:34:13.867Z,30.73
2017-03-25T02:35:12.055Z,33.45
2017-03-25T02:36:09.693Z,34.95
2017-03-25T02:37:07.342Z,29.68
2017-03-25T02:38:06.054Z,33.03
2017-03-25T02:39:03.778Z,34.85
2017-03-25T02:40:01.499Z,32.48
2017-03-25T02:40:59.406Z,34.57
2017-03-25T02:41:57.995Z,35.98
2017-03-25T02:42:55.774Z,31.75
2017-03-25T02:43:53.514Z,35.48
2017-03-25T02:44:51.258Z,30.87
2017-03-25T02:45:49.271Z,35.22
2017-03-25T02:46:46.963Z,31.73
2017-03-25T02:47:44.634Z,37.35
2017-03-25T02:48:42.466Z,32.82
2017-03-25T02:49:41.098Z,32.77
2017-03-25T02:50:38.768Z,39.62
2017-03-25T02:51:37.024Z,35.47
2017-03-25T02:52:34.658Z,33.37
2017-03-25T02:53:32.458Z,34.33
2017-03-25T02:54:30.726Z,33.53
2017-03-25T02:55:28.424Z,37.97
2017-03-25T02:56:26.192Z,30.35
2017-03-25T02:57:24.847Z,37.93
2017-03-25T02:58:23.432Z,31.63
2017-03-25T02:59:21.134Z,33.22
2017-03-25T03:00:19.267Z,33.47
2017-03-25T03:01:17.077Z,36.40
2017-03-25T03:02:14.936Z,34.47
2017-03-25T03:03:12.718Z,34.22
2017-03-25T03:04:10.495Z,30.67
2017-03-25T03:05:09.481Z,33.17
2017-03-25T03:06:07.192Z,34.02
2017-03-25T03:07:04.882Z,33.55
2017-03-25T03:08:02.494Z,37.63
2017-03-25T03:09:00.847Z,35.52
2017-03-25T03:09:58.592Z,37.67
2017-03-25T03:10:56.695Z,34.02
2017-03-25T03:11:54.334Z,31.63
2017-03-25T03:12:52.983Z,32.83
2017-03-25T03:13:51.380Z,31.37
2017-03-25T03:14:49.190Z,35.72
2017-03-25T03:15:47.074Z,32.25
2017-03-25T03:16:45.382Z,32.80
2017-03-25T03:17:43.115Z,34.78
2017-03-25T03:18:40.934Z,33.90
2017-03-25T03:19:38.569Z,31.08
2017-03-25T03:20:36.602Z,37.20
2017-03-25T03:21:35.226Z,38.77
2017-03-25T03:22:33.130Z,34.38
2017-03-25T03:23:30.948Z,34.88
2017-03-25T03:24:28.844Z,36.60
2017-03-25T03:25:27.841Z,33.80
2017-03-25T03:26:25.595Z,35.47
2017-03-25T03:27:23.307Z,37.37
2017-03-25T03:28:21.130Z,34.43
2017-03-25T03:29:18.774Z,36.55
2017-03-25T03:30:16.607Z,33.75
2017-03-25T03:31:14.755Z,36.05
2017-03-25T03:32:13.266Z,32.48
2017-03-25T03:33:11.144Z,36.30
2017-03-25T03:34:09.058Z,32.13
2017-03-25T03:35:06.777Z,34.17
2017-03-25T03:36:04.546Z,36.80
2017-03-25T03:37:02.386Z,31.45
2017-03-25T03:38:00.208Z,35.25
2017-03-25T03:38:57.819Z,34.53
2017-03-25T03:39:56.425Z,35.65
2017-03-25T03:40:54.178Z,36.53
2017-03-25T03:41:51.820Z,35.83
2017-03-25T03:42:49.949Z,36.68
2017-03-25T03:43:47.800Z,32.63
2017-03-25T03:44:45.438Z,37.13
2017-03-25T03:45:43.103Z,32.73
2017-03-25T03:46:40.757Z,31.12
2017-03-25T03:47:38.470Z,33.13
2017-03-25T03:48:36.782Z,34.87
2017-03-25T03:49:34.467Z,35.20
2017-03-25T03:50:32.155Z,35.05
2017-03-25T03:51:29.868Z,37.25
2017-03-25T03:52:27.503Z,34.43
2017-03-25T03:53:25.285Z,33.63
2017-03-25T03:54:23.310Z,34.00
2017-03-25T03:55:21.484Z,33.05
2017-03-25T03:56:19.204Z,34.42
2017-03-25T03:57:17.003Z,39.15
2017-03-25T03:58:14.651Z,38.78
2017-03-25T03:59:12.479Z,32.83
2017-03-25T04:00:10.618Z,34.90
2017-03-25T04:01:08.463Z,32.27
2017-03-25T04:02:07.239Z,37.03
2017-03-25T04:03:05.106Z,38.58
2017-03-25T04:04:02.938Z,31.80
2017-03-25T04:05:00.891Z,35.80
2017-03-25T04:05:59.219Z,36.52
2017-03-25T04:06:56.806Z,37.00
2017-03-25T04:07:54.516Z,32.88
2017-03-25T04:08:52.217Z,35.32
2017-03-25T04:09:49.887Z,35.60
2017-03-25T04:10:47.579Z,33.88
2017-03-25T04:11:45.320Z,38.73
2017-03-25T04:12:43.087Z,31.82
2017-03-25T04:13:40.700Z,35.57
2017-03-25T04:14:38.349Z,36.10
2017-03-25T04:15:36.164Z,35.37
2017-03-25T04:16:33.837Z,36.52
2017-03-25T04:17:31.524Z,36.85
2017-03-25T04:18:29.260Z,40.90
2017-03-25T04:19:27.207Z,33.17
2017-03-25T04:20:25.335Z,40.98
2017-03-25T04:21:23.090Z,32.75
2017-03-25T04:22:20.819Z,33.83
2017-03-25T04:23:18.548Z,36.68
2017-03-25T04:24:16.395Z,36.98
2017-03-25T04:25:14.310Z,32.32
2017-03-25T04:26:12.300Z,38.98
2017-03-25T04:27:09.982Z,36.70
2017-03-25T04:28:07.905Z,37.13
2017-03-25T04:29:05.543Z,34.08
2017-03-25T04:30:03.287Z,36.62
2017-03-25T04:31:01.720Z,34.52
2017-03-25T04:31:59.567Z,37.25
2017-03-25T04:32:57.199Z,36.87
2017-03-25T04:33:55.079Z,36.67
2017-03-25T04:34:52.800Z,33.55
2017-03-25T04:35:50.631Z,37.45
2017-03-25T04:36:48.318Z,35.92
2017-03-25T04:37:46.014Z,37.07
2017-03-25T04:38:44.715Z,36.18
2017-03-25T04:39:42.408Z,36.60
2017-03-25T04:40:41.236Z,36.47
2017-03-25T04:41:38.860Z,35.75
2017-03-25T04:42:36.687Z,37.47
2017-03-25T04:43:34.304Z,38.22
2017-03-25T04:44:32.180Z,36.63
2017-03-25T04:45:29.964Z,36.58
2017-03-25T04:46:27.955Z,39.12
2017-03-25T04:47:25.728Z,37.52
2017-03-25T04:48:23.446Z,41.18
2017-03-25T04:49:21.150Z,35.95
2017-03-25T04:50:18.994Z,36.02
2017-03-25T04:51:16.780Z,39.80
2017-03-25T04:52:15.199Z,38.60
2017-03-25T04:53:13.075Z,35.02
2017-03-25T04:54:10.873Z,38.80
2017-03-25T04:55:08.604Z,37.35
2017-03-25T04:56:06.238Z,39.37
2017-03-25T04:57:04.079Z,33.80
2017-03-25T04:58:02.039Z,39.87
2017-03-25T04:58:59.734Z,38.40
2017-03-25T04:59:57.387Z,38.58
2017-03-25T05:00:55.233Z,34.62
2017-03-25T05:01:53.098Z,39.50
2017-03-25T05:02:50.747Z,33.42
2017-03-25T05:03:48.603Z,36.98
2017-03-25T05:04:46.507Z,40.00
2017-03-25T05:05:44.675Z,35.72
2017-03-25T05:06:42.431Z,38.82
2017-03-25T05:07:40.054Z,38.00
2017-03-25T05:08:37.724Z,39.67
2017-03-25T05:09:35.445Z,37.60
2017-03-25T05:10:33.298Z,38.12
2017-03-25T05:11:31.200Z,38.48
2017-03-25T05:12:28.960Z,36.32
2017-03-25T05:13:26.890Z,36.10
2017-03-25T05:14:25.331Z,36.50
2017-03-25T05:15:23.854Z,37.05
2017-03-25T05:16:22.183Z,38.40
2017-03-25T05:17:20.355Z,36.33
2017-03-25T05:18:18.964Z,37.45
2017-03-25T05:19:16.598Z,35.95
2017-03-25T05:20:14.439Z,34.25
2017-03-25T05:21:12.687Z,37.42
2017-03-25T05:22:11.342Z,38.33
2017-03-25T05:23:09.154Z,39.50
2017-03-25T05:24:06.856Z,37.28
2017-03-25T05:25:04.716Z,38.73
2017-03-25T05:26:03.494Z,36.72
2017-03-25T05:27:03.419Z,37.20
2017-03-25T05:28:01.273Z,38.85
2017-03-25T05:28:58.963Z,40.62
2017-03-25T05:29:56.690Z,40.23
2017-03-25T05:30:54.883Z,42.98
2017-03-25T05:31:52.520Z,38.65
2017-03-25T05:32:50.324Z,37.75
2017-03-25T05:33:48.135Z,40.00
2017-03-25T05:34:45.788Z,37.03
2017-03-25T05:35:43.478Z,41.08
2017-03-25T05:36:41.166Z,33.82
2017-03-25T05:37:38.875Z,38.27
2017-03-25T05:38:36.717Z,40.38
2017-03-25T05:39:34.594Z,34.72
2017-03-25T05:40:32.735Z,35.22
2017-03-25T05:41:30.368Z,40.12
2017-03-25T05:42:28.105Z,33.90
2017-03-25T05:43:25.769Z,44.90
2017-03-25T05:44:23.614Z,40.08
2017-03-25T05:45:22.029Z,38.80
2017-03-25T05:46:19.964Z,36.98
2017-03-25T05:47:17.577Z,39.53
2017-03-25T05:48:15.167Z,35.55
2017-03-25T05:49:12.775Z,35.17
2017-03-25T05:50:10.511Z,38.92
2017-03-25T05:51:08.376Z,41.90
2017-03-25T05:52:06.416Z,41.97
2017-03-25T05:53:04.220Z,42.97
2017-03-25T05:54:01.943Z,40.58
2017-03-25T05:54:59.695Z,41.75
2017-03-25T05:55:57.759Z,41.80
2017-03-25T05:56:55.520Z,40.58
2017-03-25T05:57:53.352Z,39.43
2017-03-25T05:58:50.966Z,44.22
2017-03-25T05:59:48.578Z,37.55
2017-03-25T06:00:46.426Z,40.87
2017-03-25T06:01:44.643Z,38.78
2017-03-25T06:02:42.271Z,39.92
2017-03-25T06:03:39.963Z,41.48
2017-03-25T06:04:37.725Z,39.08
2017-03-25T06:05:35.398Z,41.88
2017-03-25T06:06:33.186Z,40.22
2017-03-25T06:07:30.974Z,43.07
2017-03-25T06:08:28.771Z,42.57
2017-03-25T06:09:26.432Z,42.72
2017-03-25T06:10:24.266Z,38.63
2017-03-25T06:11:22.043Z,41.75
2017-03-25T06:12:19.775Z,39.53
2017-03-25T06:13:19.539Z,44.97
2017-03-25T06:14:17.179Z,38.77
2017-03-25T06:15:14.867Z,38.32
2017-03-25T06:16:12.578Z,39.58
2017-03-25T06:17:10.365Z,41.38
2017-03-25T06:18:08.939Z,41.47
2017-03-25T06:19:07.073Z,38.40
2017-03-25T06:20:04.764Z,39.27
2017-03-25T06:21:02.803Z,41.47
2017-03-25T06:22:00.427Z,41.82
2017-03-25T06:22:58.039Z,40.03
2017-03-25T06:23:55.712Z,41.07
2017-03-25T06:24:53.817Z,40.13
2017-03-25T06:25:51.710Z,41.53
2017-03-25T06:26:49.459Z,38.10
2017-03-25T06:27:47.953Z,40.78
2017-03-25T06:29:35.996Z,40.10
2017-03-25T06:30:34.023Z,36.62
2017-03-25T06:31:31.890Z,41.40
2017-03-25T06:32:29.683Z,41.40
2017-03-25T06:33:27.431Z,38.55
2017-03-25T06:34:25.239Z,42.77
2017-03-25T06:35:22.980Z,37.77
2017-03-25T06:36:21.125Z,39.45
2017-03-25T06:37:18.927Z,37.63
2017-03-25T06:38:18.518Z,40.05
2017-03-25T06:39:16.425Z,38.52
2017-03-25T06:40:14.191Z,41.40
2017-03-25T06:41:11.949Z,38.73
2017-03-25T06:42:10.100Z,43.90
2017-03-25T06:43:07.811Z,39.07
2017-03-25T06:44:06.319Z,40.25
2017-03-25T06:45:09.782Z,43.27
2017-03-25T06:46:16.502Z,39.53
2017-03-25T06:47:14.241Z,40.22
2017-03-25T06:48:12.119Z,39.20
2017-03-25T06:49:09.756Z,42.00
2017-03-25T06:50:07.550Z,40.40
2017-03-25T06:51:05.471Z,41.33
2017-03-25T06:52:03.235Z,37.05
2017-03-25T06:53:00.846Z,39.48
2017-03-25T06:53:58.495Z,41.10
2017-03-25T06:54:56.202Z,41.75
2017-03-25T06:55:54.429Z,37.93
2017-03-25T06:56:52.171Z,37.75
2017-03-25T06:57:49.864Z,37.73
2017-03-25T06:58:47.690Z,40.52
2017-03-25T06:59:45.380Z,39.57
2017-03-25T07:00:43.143Z,36.72
2017-03-25T07:01:41.981Z,35.12
2017-03-25T07:02:39.993Z,36.70
2017-03-25T07:03:37.706Z,40.75
2017-03-25T07:04:35.490Z,40.22
2017-03-25T07:05:33.153Z,34.75
2017-03-25T07:06:30.896Z,40.75
2017-03-25T07:07:28.920Z,36.78
2017-03-25T07:08:26.588Z,34.73
2017-03-25T07:09:24.367Z,39.02
2017-03-25T07:10:22.191Z,36.98
2017-03-25T07:11:19.865Z,35.13
2017-03-25T07:12:17.687Z,36.97
2017-03-25T07:13:15.612Z,38.47
2017-03-25T07:14:13.635Z,40.77
2017-03-25T07:15:11.386Z,40.88
2017-03-25T07:16:09.665Z,36.57
2017-03-25T07:17:07.399Z,39.47
2017-03-25T07:18:05.237Z,35.48
2017-03-25T07:19:03.183Z,33.13
2017-03-25T07:20:00.786Z,39.20
2017-03-25T07:20:58.724Z,38.45
2017-03-25T07:21:56.357Z,38.82
2017-03-25T07:22:54.023Z,33.92
2017-03-25T07:23:52.376Z,35.50
2017-03-25T07:24:50.182Z,33.47
2017-03-25T07:25:48.163Z,38.03
2017-03-25T07:26:46.023Z,35.65
2017-03-25T07:27:43.795Z,38.37
2017-03-25T07:28:41.546Z,40.97
2017-03-25T07:29:39.361Z,34.15
2017-03-25T07:30:37.656Z,37.50
2017-03-25T07:31:35.300Z,36.02
2017-03-25T07:32:32.926Z,36.68
2017-03-25T07:33:30.626Z,38.70
2017-03-25T07:34:28.446Z,37.73
2017-03-25T07:35:26.290Z,36.78
2017-03-25T07:36:24.605Z,36.48
2017-03-25T07:37:22.407Z,34.67
2017-03-25T07:38:20.060Z,38.05
2017-03-25T07:39:17.720Z,35.08
2017-03-25T07:40:15.630Z,35.95
2017-03-25T07:41:13.362Z,37.88
2017-03-25T07:42:11.537Z,35.68
2017-03-25T07:43:09.243Z,36.08
2017-03-25T07:44:07.018Z,33.03
2017-03-25T07:45:04.699Z,34.30
2017-03-25T07:46:02.595Z,36.27
2017-03-25T07:47:00.225Z,38.57
2017-03-25T07:47:58.077Z,37.73
2017-03-25T07:48:55.651Z,35.10
2017-03-25T07:49:53.514Z,37.83
2017-03-25T07:50:51.634Z,38.85
2017-03-25T07:51:49.530Z,36.68
2017-03-25T07:52:47.439Z,35.42
2017-03-25T07:53:45.108Z,35.17
2017-03-25T07:54:42.769Z,38.25
2017-03-25T07:55:40.471Z,35.58
2017-03-25T07:56:39.403Z,36.03
2017-03-25T07:57:37.031Z,37.72
2017-03-25T07:58:34.699Z,33.60
2017-03-25T07:59:32.586Z,38.87
2017-03-25T08:00:30.359Z,36.67
2017-03-25T08:01:35.175Z,33.97
2017-03-25T08:02:33.375Z,36.50
2017-03-25T08:03:31.025Z,35.23
2017-03-25T08:04:28.744Z,31.80
2017-03-25T08:05:26.631Z,34.87
2017-03-25T08:06:24.316Z,34.83
2017-03-25T08:07:22.274Z,34.38
2017-03-25T08:08:20.144Z,34.63
2017-03-25T08:09:18.115Z,34.87
2017-03-25T08:10:15.850Z,37.10
2017-03-25T08:11:14.537Z,33.25
2017-03-25T08:12:12.211Z,33.20
2017-03-25T08:13:09.879Z,37.93
2017-03-25T08:14:08.059Z,33.55
2017-03-25T08:15:05.855Z,34.87
2017-03-25T08:16:03.800Z,35.33
2017-03-25T08:17:01.707Z,33.93
2017-03-25T08:17:59.528Z,35.52
2017-03-25T08:18:57.179Z,31.98
2017-03-25T08:19:55.402Z,30.35
2017-03-25T08:20:53.216Z,36.80
2017-03-25T08:21:51.077Z,34.35
2017-03-25T08:22:48.736Z,30.07
2017-03-25T08:23:46.697Z,35.93
2017-03-25T08:24:44.345Z,34.43
2017-03-25T08:25:42.277Z,37.17
2017-03-25T08:26:40.070Z,34.40
2017-03-25T08:27:37.763Z,31.85
2017-03-25T08:28:35.411Z,31.95
2017-03-25T08:29:33.111Z,34.67
2017-03-25T08:30:30.801Z,30.50
2017-03-25T08:31:28.908Z,32.62
2017-03-25T08:32:26.603Z,31.43
2017-03-25T08:33:24.495Z,31.43
2017-03-25T08:34:22.314Z,34.48
2017-03-25T08:35:20.064Z,31.05
2017-03-25T08:36:17.863Z,31.97
2017-03-25T08:37:16.736Z,31.83
2017-03-25T08:38:14.663Z,31.17
2017-03-25T08:39:12.539Z,32.43
2017-03-25T08:40:10.890Z,32.25
2017-03-25T08:41:08.662Z,31.88
2017-03-25T08:42:06.397Z,31.35
2017-03-25T08:43:04.127Z,31.55
2017-03-25T08:44:01.810Z,32.10
2017-03-25T08:44:59.446Z,30.03
2017-03-25T08:45:57.488Z,30.40
2017-03-25T08:46:55.125Z,33.15
2017-03-25T08:47:52.748Z,32.08
2017-03-25T08:48:50.514Z,30.63
2017-03-25T08:49:48.564Z,31.82
2017-03-25T08:50:46.263Z,31.95
2017-03-25T08:51:44.550Z,30.97
2017-03-25T08:52:42.812Z,30.98
2017-03-25T08:53:40.451Z,29.42
2017-03-25T08:54:38.104Z,28.70
2017-03-25T08:55:35.810Z,31.22
2017-03-25T08:56:33.535Z,29.25
2017-03-25T08:57:31.594Z,31.42
2017-03-25T08:58:29.443Z,27.95
2017-03-25T08:59:27.127Z,31.18
2017-03-25T09:00:25.166Z,28.60
2017-03-25T09:01:22.885Z,29.72
2017-03-25T09:02:20.627Z,27.98
2017-03-25T09:03:18.282Z,29.77
2017-03-25T09:04:16.124Z,30.08
2017-03-25T09:05:13.875Z,28.40
2017-03-25T09:06:12.102Z,30.22
2017-03-25T09:07:09.782Z,31.55
2017-03-25T09:08:07.565Z,28.92
2017-03-25T09:09:05.559Z,26.72
2017-03-25T09:10:03.367Z,26.62
2017-03-25T09:11:01.242Z,33.88
2017-03-25T09:11:59.114Z,29.83
2017-03-25T09:12:56.926Z,32.48
2017-03-25T09:13:54.719Z,26.92
2017-03-25T09:14:52.438Z,29.08
2017-03-25T09:15:50.648Z,27.22
2017-03-25T09:16:48.286Z,27.80
2017-03-25T09:17:45.963Z,28.98
2017-03-25T09:18:43.786Z,26.83
2017-03-25T09:19:41.603Z,27.35
2017-03-25T09:20:39.492Z,29.88
2017-03-25T09:21:37.300Z,27.15
2017-03-25T09:22:34.976Z,25.43
2017-03-25T09:23:32.621Z,28.25
2017-03-25T09:24:30.642Z,27.43
2017-03-25T09:25:28.382Z,27.88
2017-03-25T09:26:26.171Z,27.83
2017-03-25T09:27:24.504Z,25.40
2017-03-25T09:28:22.221Z,25.55
2017-03-25T09:29:19.868Z,28.17
2017-03-25T09:30:18.406Z,26.80
2017-03-25T09:31:16.098Z,32.90
2017-03-25T09:32:13.775Z,28.62
2017-03-25T09:33:11.629Z,30.80
2017-03-25T09:34:10.430Z,24.33
2017-03-25T09:35:08.223Z,26.73
2017-03-25T09:36:06.352Z,28.82
2017-03-25T09:37:04.093Z,25.63
2017-03-25T09:38:01.908Z,25.97
2017-03-25T09:38:59.672Z,27.37
2017-03-25T09:39:57.463Z,31.13
2017-03-25T09:40:55.163Z,27.52
2017-03-25T09:41:53.499Z,26.40
2017-03-25T09:42:51.164Z,26.10
2017-03-25T09:43:48.935Z,26.57
2017-03-25T09:44:46.596Z,26.72
2017-03-25T09:45:44.280Z,25.93
2017-03-25T09:46:42.915Z,28.12
2017-03-25T09:47:41.045Z,26.30
2017-03-25T09:48:38.684Z,25.37
2017-03-25T09:49:36.370Z,25.72
2017-03-25T09:50:34.276Z,29.17
2017-03-25T09:51:31.900Z,30.48
2017-03-25T09:52:29.534Z,29.30
2017-03-25T09:53:27.553Z,28.08
2017-03-25T09:54:25.190Z,28.63
2017-03-25T09:55:23.122Z,23.48
2017-03-25T09:56:20.816Z,25.78
2017-03-25T09:57:18.582Z,27.22
2017-03-25T09:58:16.234Z,25.22
2017-03-25T09:59:14.428Z,24.27
2017-03-25T10:00:12.655Z,24.88
2017-03-25T10:01:10.455Z,23.62
2017-03-25T10:02:08.104Z,25.83
2017-03-25T10:03:05.883Z,27.15
2017-03-25T10:04:03.626Z,24.80
2017-03-25T10:05:02.418Z,24.80
2017-03-25T10:06:00.123Z,24.58
2017-03-25T10:06:58.916Z,23.45
2017-03-25T10:07:56.572Z,26.43
2017-03-25T10:08:54.260Z,24.78
2017-03-25T10:09:52.091Z,25.52
2017-03-25T10:10:50.224Z,25.65
2017-03-25T10:11:47.835Z,26.88
2017-03-25T10:12:45.625Z,23.25
2017-03-25T10:13:43.240Z,24.47
2017-03-25T10:14:40.883Z,24.45
2017-03-25T10:15:38.719Z,25.55
2017-03-25T10:16:36.732Z,24.15
2017-03-25T10:17:34.355Z,27.03
2017-03-25T10:18:32.203Z,27.35
2017-03-25T10:19:29.951Z,25.73
2017-03-25T10:20:27.802Z,24.25
2017-03-25T10:21:25.444Z,26.65
2017-03-25T10:22:23.382Z,22.45
2017-03-25T10:23:21.023Z,22.57
2017-03-25T10:24:18.792Z,22.20
2017-03-25T10:25:17.827Z,23.03
2017-03-25T10:26:15.556Z,22.30
2017-03-25T10:27:13.389Z,21.12
2017-03-25T10:28:11.207Z,22.63
2017-03-25T10:29:08.970Z,22.83
2017-03-25T10:30:07.196Z,21.67
2017-03-25T10:31:04.923Z,23.47
2017-03-25T10:32:02.558Z,22.00
2017-03-25T10:33:00.974Z,22.78
2017-03-25T10:33:58.606Z,22.33
2017-03-25T10:34:56.767Z,23.00
2017-03-25T10:35:54.479Z,23.82
2017-03-25T10:36:52.219Z,23.83
2017-03-25T10:37:49.835Z,21.23
2017-03-25T10:38:47.735Z,21.72
2017-03-25T10:39:45.469Z,22.97
2017-03-25T10:40:43.644Z,24.55
2017-03-25T10:41:41.257Z,23.13
2017-03-25T10:42:39.164Z,22.95
2017-03-25T10:43:37.367Z,23.55
2017-03-25T10:44:35.111Z,22.82
2017-03-25T10:45:32.835Z,23.55
2017-03-25T10:46:30.779Z,23.50
2017-03-25T10:47:29.169Z,22.18
2017-03-25T10:48:26.847Z,21.58
2017-03-25T10:49:24.503Z,21.22
2017-03-25T10:50:22.478Z,21.52
2017-03-25T10:51:20.356Z,22.47
2017-03-25T10:52:18.340Z,21.98
2017-03-25T10:53:15.995Z,22.82
2017-03-25T10:54:14.068Z,21.35
2017-03-25T10:55:12.412Z,20.57
2017-03-25T10:56:10.031Z,22.35
2017-03-25T10:57:07.926Z,21.40
2017-03-25T10:58:05.647Z,21.22
2017-03-25T10:59:03.483Z,21.08
2017-03-25T11:00:01.239Z,22.25
2017-03-25T11:00:59.353Z,22.22
2017-03-25T11:01:57.006Z,20.82
2017-03-25T11:02:54.623Z,20.88
2017-03-25T11:03:52.249Z,20.72
2017-03-25T11:04:49.886Z,21.00
2017-03-25T11:05:48.326Z,22.38
2017-03-25T11:06:46.027Z,22.05
2017-03-25T11:07:43.786Z,15.92
2017-03-25T11:08:41.506Z,21.57
2017-03-25T11:09:39.144Z,22.85
2017-03-25T11:10:37.054Z,22.88
2017-03-25T11:11:34.748Z,23.50
2017-03-25T11:12:32.800Z,21.77
2017-03-25T11:13:30.603Z,22.12
2017-03-25T11:14:28.299Z,22.92
2017-03-25T11:15:26.134Z,24.58
2017-03-25T11:16:23.948Z,22.08
2017-03-25T11:17:21.582Z,23.52
2017-03-25T11:18:19.268Z,23.68
2017-03-25T11:19:17.088Z,23.03
2017-03-25T11:20:15.353Z,22.32
2017-03-25T11:21:13.195Z,24.63
2017-03-25T11:22:10.883Z,22.68
2017-03-25T11:23:08.548Z,24.13
2017-03-25T11:24:07.499Z,23.70
2017-03-25T11:25:05.278Z,22.47
2017-03-25T11:26:02.981Z,23.30
2017-03-25T11:27:00.664Z,24.12
2017-03-25T11:27:58.634Z,22.05
2017-03-25T11:28:56.445Z,25.43
2017-03-25T11:29:55.223Z,22.55
2017-03-25T11:30:53.264Z,22.40
2017-03-25T11:31:51.086Z,24.28
2017-03-25T11:32:48.957Z,23.63
2017-03-25T11:33:46.791Z,21.33
2017-03-25T11:34:44.388Z,23.20
2017-03-25T11:35:42.608Z,22.13
2017-03-25T11:36:40.304Z,21.55
2017-03-25T11:37:37.964Z,21.38
2017-03-25T11:38:35.981Z,21.85
2017-03-25T11:39:33.803Z,22.07
2017-03-25T11:40:31.503Z,21.00
2017-03-25T11:41:29.522Z,22.40
2017-03-25T11:42:27.179Z,22.30
2017-03-25T11:43:25.055Z,21.18
2017-03-25T11:44:22.679Z,21.22
2017-03-25T11:45:21.148Z,22.43
2017-03-25T11:46:18.887Z,22.48
2017-03-25T11:47:16.855Z,22.53
2017-03-25T11:48:15.503Z,20.90
2017-03-25T11:49:13.519Z,21.85
2017-03-25T11:50:11.887Z,20.30
2017-03-25T11:51:09.779Z,22.02
2017-03-25T11:52:07.469Z,19.10
2017-03-25T11:53:05.164Z,20.93
2017-03-25T11:54:02.935Z,19.53
2017-03-25T11:55:00.568Z,20.77
2017-03-25T11:55:58.898Z,19.45
2017-03-25T11:56:56.623Z,20.55
2017-03-25T11:57:54.567Z,19.37
2017-03-25T11:58:53.088Z,19.83
2017-03-25T11:59:50.715Z,20.72
2017-03-25T12:00:49.339Z,20.20
2017-03-25T12:01:47.458Z,18.92
2017-03-25T12:02:45.083Z,19.70
2017-03-25T12:03:42.747Z,20.05
2017-03-25T12:04:40.567Z,18.85
2017-03-25T12:05:38.487Z,21.33
2017-03-25T12:06:36.142Z,21.90
2017-03-25T12:07:34.804Z,20.12
2017-03-25T12:08:33.500Z,19.98
2017-03-25T12:09:31.360Z,19.60
2017-03-25T12:10:30.001Z,19.58
2017-03-25T12:11:28.763Z,18.93
2017-03-25T12:12:26.666Z,19.40
2017-03-25T12:13:24.447Z,19.22
2017-03-25T12:14:22.110Z,18.68
2017-03-25T12:15:20.047Z,19.25
2017-03-25T12:16:17.871Z,20.03
2017-03-25T12:17:16.486Z,17.93
2017-03-25T12:18:14.174Z,17.43
2017-03-25T12:19:13.143Z,18.22
2017-03-25T12:20:11.556Z,19.42
2017-03-25T12:21:10.130Z,19.67
2017-03-25T12:22:08.821Z,17.28
2017-03-25T12:23:07.354Z,19.13
2017-03-25T12:24:05.196Z,16.70
2017-03-25T12:25:04.329Z,17.33
2017-03-25T12:26:02.031Z,16.73
2017-03-25T12:26:59.699Z,17.57